sensor_id;sensor_type;location;lat;lon;timestamp;P1;durP1;ratioP1;P2;durP2;ratioP2
5026;SDS011;2532;52.480;13.354;2023-12-14T00:01:26;21.37;;;10.73;;
5026;SDS011;2532;52.480;13.354;2023-12-14T00:03:53;18.53;;;10.20;;
5026;SDS011;2532;52.480;13.354;2023-12-14T00:06:19;17.77;;;9.63;;
5026;SDS011;2532;52.480;13.354;2023-12-14T00:08:48;19.70;;;10.67;;
5026;SDS011;2532;52.480;13.354;2023-12-14T00:11:15;20.20;;;10.03;;
5026;SDS011;2532;52.480;13.354;2023-12-14T00:13:44;19.03;;;10.30;;
5026;SDS011;2532;52.480;13.354;2023-12-14T00:16:11;17.70;;;10.30;;
5026;SDS011;2532;52.480;13.354;2023-12-14T00:18:39;20.87;;;10.70;;
5026;SDS011;2532;52.480;13.354;2023-12-14T00:21:08;21.03;;;10.70;;
5026;SDS011;2532;52.480;13.354;2023-12-14T00:23:37;22.80;;;11.47;;
5026;SDS011;2532;52.480;13.354;2023-12-14T00:26:04;22.30;;;11.43;;
5026;SDS011;2532;52.480;13.354;2023-12-14T00:28:35;21.00;;;10.40;;
5026;SDS011;2532;52.480;13.354;2023-12-14T00:31:03;19.43;;;10.97;;
5026;SDS011;2532;52.480;13.354;2023-12-14T00:33:33;22.63;;;11.13;;
5026;SDS011;2532;52.480;13.354;2023-12-14T00:36:00;25.37;;;10.90;;
5026;SDS011;2532;52.480;13.354;2023-12-14T00:38:27;18.67;;;10.10;;
5026;SDS011;2532;52.480;13.354;2023-12-14T00:40:54;21.43;;;10.57;;
5026;SDS011;2532;52.480;13.354;2023-12-14T00:43:21;17.40;;;10.27;;
5026;SDS011;2532;52.480;13.354;2023-12-14T00:45:48;18.70;;;9.90;;
5026;SDS011;2532;52.480;13.354;2023-12-14T00:48:18;21.13;;;10.87;;
5026;SDS011;2532;52.480;13.354;2023-12-14T00:50:45;20.60;;;11.00;;
5026;SDS011;2532;52.480;13.354;2023-12-14T00:53:12;24.27;;;11.60;;
5026;SDS011;2532;52.480;13.354;2023-12-14T00:55:39;21.43;;;11.60;;
5026;SDS011;2532;52.480;13.354;2023-12-14T00:58:07;19.40;;;10.17;;
5026;SDS011;2532;52.480;13.354;2023-12-14T01:00:33;21.17;;;10.17;;
5026;SDS011;2532;52.480;13.354;2023-12-14T01:03:00;23.17;;;12.00;;
5026;SDS011;2532;52.480;13.354;2023-12-14T01:05:29;22.00;;;10.13;;
5026;SDS011;2532;52.480;13.354;2023-12-14T01:07:57;26.37;;;11.90;;
5026;SDS011;2532;52.480;13.354;2023-12-14T01:10:24;20.47;;;11.40;;
5026;SDS011;2532;52.480;13.354;2023-12-14T01:12:53;20.47;;;11.30;;
5026;SDS011;2532;52.480;13.354;2023-12-14T01:15:20;20.70;;;10.87;;
5026;SDS011;2532;52.480;13.354;2023-12-14T01:17:47;21.70;;;11.27;;
5026;SDS011;2532;52.480;13.354;2023-12-14T01:20:14;21.07;;;10.37;;
5026;SDS011;2532;52.480;13.354;2023-12-14T01:22:43;15.87;;;8.43;;
5026;SDS011;2532;52.480;13.354;2023-12-14T01:25:10;22.67;;;11.27;;
5026;SDS011;2532;52.480;13.354;2023-12-14T01:27:37;21.80;;;10.50;;
5026;SDS011;2532;52.480;13.354;2023-12-14T01:30:05;18.23;;;9.90;;
5026;SDS011;2532;52.480;13.354;2023-12-14T01:32:33;21.40;;;10.73;;
5026;SDS011;2532;52.480;13.354;2023-12-14T01:34:59;25.80;;;11.37;;
5026;SDS011;2532;52.480;13.354;2023-12-14T01:37:26;23.77;;;10.10;;
5026;SDS011;2532;52.480;13.354;2023-12-14T01:39:55;21.73;;;10.80;;
5026;SDS011;2532;52.480;13.354;2023-12-14T01:42:22;25.37;;;10.10;;
5026;SDS011;2532;52.480;13.354;2023-12-14T01:44:49;23.10;;;12.37;;
5026;SDS011;2532;52.480;13.354;2023-12-14T01:47:16;24.47;;;10.90;;
5026;SDS011;2532;52.480;13.354;2023-12-14T01:49:43;16.53;;;9.83;;
5026;SDS011;2532;52.480;13.354;2023-12-14T01:52:11;18.40;;;10.33;;
5026;SDS011;2532;52.480;13.354;2023-12-14T01:54:38;21.47;;;11.37;;
5026;SDS011;2532;52.480;13.354;2023-12-14T01:57:06;15.83;;;8.43;;
5026;SDS011;2532;52.480;13.354;2023-12-14T01:59:33;20.30;;;8.83;;
5026;SDS011;2532;52.480;13.354;2023-12-14T02:02:00;18.20;;;9.93;;
5026;SDS011;2532;52.480;13.354;2023-12-14T02:04:28;16.50;;;8.67;;
5026;SDS011;2532;52.480;13.354;2023-12-14T02:06:55;14.03;;;9.30;;
5026;SDS011;2532;52.480;13.354;2023-12-14T02:09:22;12.47;;;7.70;;
5026;SDS011;2532;52.480;13.354;2023-12-14T02:11:50;13.77;;;8.20;;
5026;SDS011;2532;52.480;13.354;2023-12-14T02:14:20;14.10;;;7.57;;
5026;SDS011;2532;52.480;13.354;2023-12-14T02:16:48;14.20;;;8.43;;
5026;SDS011;2532;52.480;13.354;2023-12-14T02:19:16;12.17;;;7.43;;
5026;SDS011;2532;52.480;13.354;2023-12-14T02:21:45;10.80;;;6.50;;
5026;SDS011;2532;52.480;13.354;2023-12-14T02:24:14;12.33;;;8.23;;
5026;SDS011;2532;52.480;13.354;2023-12-14T02:26:41;11.27;;;7.90;;
5026;SDS011;2532;52.480;13.354;2023-12-14T02:29:08;10.03;;;6.40;;
5026;SDS011;2532;52.480;13.354;2023-12-14T02:31:35;11.00;;;6.43;;
5026;SDS011;2532;52.480;13.354;2023-12-14T02:34:02;12.70;;;8.40;;
5026;SDS011;2532;52.480;13.354;2023-12-14T02:36:29;10.77;;;7.20;;
5026;SDS011;2532;52.480;13.354;2023-12-14T02:38:56;14.90;;;7.40;;
5026;SDS011;2532;52.480;13.354;2023-12-14T02:41:24;19.37;;;8.07;;
5026;SDS011;2532;52.480;13.354;2023-12-14T02:43:51;15.77;;;8.87;;
5026;SDS011;2532;52.480;13.354;2023-12-14T02:46:18;16.63;;;9.33;;
5026;SDS011;2532;52.480;13.354;2023-12-14T02:48:45;13.00;;;7.63;;
5026;SDS011;2532;52.480;13.354;2023-12-14T02:51:12;19.63;;;10.53;;
5026;SDS011;2532;52.480;13.354;2023-12-14T02:53:41;21.60;;;10.83;;
5026;SDS011;2532;52.480;13.354;2023-12-14T02:56:09;18.30;;;10.87;;
5026;SDS011;2532;52.480;13.354;2023-12-14T02:58:38;13.00;;;8.20;;
5026;SDS011;2532;52.480;13.354;2023-12-14T03:01:08;15.57;;;9.47;;
5026;SDS011;2532;52.480;13.354;2023-12-14T03:03:37;18.40;;;10.70;;
5026;SDS011;2532;52.480;13.354;2023-12-14T03:06:07;17.60;;;10.30;;
5026;SDS011;2532;52.480;13.354;2023-12-14T03:08:34;14.30;;;9.07;;
5026;SDS011;2532;52.480;13.354;2023-12-14T03:11:01;15.90;;;10.43;;
5026;SDS011;2532;52.480;13.354;2023-12-14T03:13:28;16.63;;;9.70;;
5026;SDS011;2532;52.480;13.354;2023-12-14T03:16:00;26.13;;;9.63;;
5026;SDS011;2532;52.480;13.354;2023-12-14T03:18:27;22.07;;;12.00;;
5026;SDS011;2532;52.480;13.354;2023-12-14T03:20:54;17.27;;;9.53;;
5026;SDS011;2532;52.480;13.354;2023-12-14T03:23:21;17.57;;;9.30;;
5026;SDS011;2532;52.480;13.354;2023-12-14T03:25:49;16.90;;;8.80;;
5026;SDS011;2532;52.480;13.354;2023-12-14T03:28:16;17.10;;;10.87;;
5026;SDS011;2532;52.480;13.354;2023-12-14T03:30:43;16.90;;;9.23;;
5026;SDS011;2532;52.480;13.354;2023-12-14T03:33:12;18.83;;;10.90;;
5026;SDS011;2532;52.480;13.354;2023-12-14T03:35:39;19.27;;;10.50;;
5026;SDS011;2532;52.480;13.354;2023-12-14T03:38:07;18.40;;;11.40;;
5026;SDS011;2532;52.480;13.354;2023-12-14T03:43:22;22.40;;;11.10;;
5026;SDS011;2532;52.480;13.354;2023-12-14T03:45:49;20.83;;;11.90;;
5026;SDS011;2532;52.480;13.354;2023-12-14T03:48:18;23.00;;;10.00;;
5026;SDS011;2532;52.480;13.354;2023-12-14T03:50:45;22.63;;;12.03;;
5026;SDS011;2532;52.480;13.354;2023-12-14T03:53:11;18.80;;;9.67;;
5026;SDS011;2532;52.480;13.354;2023-12-14T03:55:38;17.07;;;10.57;;
5026;SDS011;2532;52.480;13.354;2023-12-14T03:58:05;17.47;;;10.43;;
5026;SDS011;2532;52.480;13.354;2023-12-14T04:00:32;16.60;;;9.13;;
5026;SDS011;2532;52.480;13.354;2023-12-14T04:02:59;17.60;;;10.73;;
5026;SDS011;2532;52.480;13.354;2023-12-14T04:05:27;23.33;;;11.40;;
5026;SDS011;2532;52.480;13.354;2023-12-14T04:07:54;22.53;;;11.33;;
5026;SDS011;2532;52.480;13.354;2023-12-14T04:10:21;20.30;;;8.87;;
5026;SDS011;2532;52.480;13.354;2023-12-14T04:12:48;18.53;;;11.80;;
5026;SDS011;2532;52.480;13.354;2023-12-14T04:15:15;16.73;;;8.10;;
5026;SDS011;2532;52.480;13.354;2023-12-14T04:17:43;17.77;;;9.77;;
5026;SDS011;2532;52.480;13.354;2023-12-14T04:20:10;18.47;;;11.43;;
5026;SDS011;2532;52.480;13.354;2023-12-14T04:22:42;17.10;;;9.00;;
5026;SDS011;2532;52.480;13.354;2023-12-14T04:25:09;14.83;;;9.30;;
5026;SDS011;2532;52.480;13.354;2023-12-14T04:27:36;18.23;;;9.30;;
5026;SDS011;2532;52.480;13.354;2023-12-14T04:30:04;17.20;;;8.80;;
5026;SDS011;2532;52.480;13.354;2023-12-14T04:32:35;18.90;;;8.00;;
5026;SDS011;2532;52.480;13.354;2023-12-14T04:35:02;12.00;;;8.40;;
5026;SDS011;2532;52.480;13.354;2023-12-14T04:37:30;13.80;;;8.50;;
5026;SDS011;2532;52.480;13.354;2023-12-14T04:39:58;13.77;;;8.93;;
5026;SDS011;2532;52.480;13.354;2023-12-14T04:42:28;18.60;;;9.50;;
5026;SDS011;2532;52.480;13.354;2023-12-14T04:44:55;15.77;;;9.00;;
5026;SDS011;2532;52.480;13.354;2023-12-14T04:47:22;14.70;;;7.67;;
5026;SDS011;2532;52.480;13.354;2023-12-14T04:49:49;18.77;;;9.37;;
5026;SDS011;2532;52.480;13.354;2023-12-14T04:52:19;19.50;;;9.93;;
5026;SDS011;2532;52.480;13.354;2023-12-14T04:54:48;17.73;;;10.10;;
5026;SDS011;2532;52.480;13.354;2023-12-14T04:57:16;15.70;;;7.63;;
5026;SDS011;2532;52.480;13.354;2023-12-14T04:59:43;14.83;;;9.17;;
5026;SDS011;2532;52.480;13.354;2023-12-14T05:02:10;22.27;;;9.20;;
5026;SDS011;2532;52.480;13.354;2023-12-14T05:04:37;16.97;;;8.67;;
5026;SDS011;2532;52.480;13.354;2023-12-14T05:07:04;15.33;;;8.77;;
5026;SDS011;2532;52.480;13.354;2023-12-14T05:09:32;23.50;;;9.93;;
5026;SDS011;2532;52.480;13.354;2023-12-14T05:11:59;13.13;;;7.60;;
5026;SDS011;2532;52.480;13.354;2023-12-14T05:14:27;16.00;;;8.13;;
5026;SDS011;2532;52.480;13.354;2023-12-14T05:16:54;16.87;;;8.50;;
5026;SDS011;2532;52.480;13.354;2023-12-14T05:19:25;18.77;;;9.43;;
5026;SDS011;2532;52.480;13.354;2023-12-14T05:21:52;19.77;;;8.70;;
5026;SDS011;2532;52.480;13.354;2023-12-14T05:24:19;17.93;;;8.23;;
5026;SDS011;2532;52.480;13.354;2023-12-14T05:26:46;13.63;;;8.80;;
5026;SDS011;2532;52.480;13.354;2023-12-14T05:29:13;13.33;;;8.33;;
5026;SDS011;2532;52.480;13.354;2023-12-14T05:31:43;14.30;;;8.70;;
5026;SDS011;2532;52.480;13.354;2023-12-14T05:34:10;17.00;;;9.13;;
5026;SDS011;2532;52.480;13.354;2023-12-14T05:36:37;20.33;;;10.57;;
5026;SDS011;2532;52.480;13.354;2023-12-14T05:39:04;13.97;;;7.87;;
5026;SDS011;2532;52.480;13.354;2023-12-14T05:41:31;13.90;;;9.90;;
5026;SDS011;2532;52.480;13.354;2023-12-14T05:43:58;17.80;;;9.17;;
5026;SDS011;2532;52.480;13.354;2023-12-14T05:46:28;18.00;;;8.40;;
5026;SDS011;2532;52.480;13.354;2023-12-14T05:48:56;12.57;;;8.53;;
5026;SDS011;2532;52.480;13.354;2023-12-14T05:51:27;13.80;;;8.23;;
5026;SDS011;2532;52.480;13.354;2023-12-14T05:53:55;12.50;;;7.83;;
5026;SDS011;2532;52.480;13.354;2023-12-14T05:56:22;19.77;;;10.50;;
5026;SDS011;2532;52.480;13.354;2023-12-14T05:58:52;13.13;;;8.53;;
5026;SDS011;2532;52.480;13.354;2023-12-14T06:01:18;14.13;;;8.17;;
5026;SDS011;2532;52.480;13.354;2023-12-14T06:03:45;17.37;;;9.73;;
5026;SDS011;2532;52.480;13.354;2023-12-14T06:06:14;12.90;;;9.03;;
5026;SDS011;2532;52.480;13.354;2023-12-14T06:08:41;13.23;;;8.30;;
5026;SDS011;2532;52.480;13.354;2023-12-14T06:11:11;11.30;;;7.47;;
5026;SDS011;2532;52.480;13.354;2023-12-14T06:13:38;13.07;;;8.00;;
5026;SDS011;2532;52.480;13.354;2023-12-14T06:16:07;13.37;;;8.43;;
5026;SDS011;2532;52.480;13.354;2023-12-14T06:18:37;12.40;;;8.30;;
5026;SDS011;2532;52.480;13.354;2023-12-14T06:21:06;15.60;;;8.50;;
5026;SDS011;2532;52.480;13.354;2023-12-14T06:23:35;25.73;;;12.60;;
5026;SDS011;2532;52.480;13.354;2023-12-14T06:26:02;17.87;;;8.67;;
5026;SDS011;2532;52.480;13.354;2023-12-14T06:28:30;12.87;;;9.13;;
5026;SDS011;2532;52.480;13.354;2023-12-14T06:30:59;11.30;;;7.73;;
5026;SDS011;2532;52.480;13.354;2023-12-14T06:33:27;12.90;;;8.43;;
5026;SDS011;2532;52.480;13.354;2023-12-14T06:35:54;14.77;;;8.00;;
5026;SDS011;2532;52.480;13.354;2023-12-14T06:38:21;12.80;;;8.07;;
5026;SDS011;2532;52.480;13.354;2023-12-14T06:40:49;12.67;;;7.50;;
5026;SDS011;2532;52.480;13.354;2023-12-14T06:43:16;9.90;;;7.40;;
5026;SDS011;2532;52.480;13.354;2023-12-14T06:45:43;11.30;;;8.33;;
5026;SDS011;2532;52.480;13.354;2023-12-14T06:48:10;10.90;;;7.77;;
5026;SDS011;2532;52.480;13.354;2023-12-14T06:50:36;12.67;;;7.53;;
5026;SDS011;2532;52.480;13.354;2023-12-14T06:53:03;10.97;;;7.80;;
5026;SDS011;2532;52.480;13.354;2023-12-14T06:55:29;11.90;;;7.60;;
5026;SDS011;2532;52.480;13.354;2023-12-14T06:57:58;10.33;;;7.97;;
5026;SDS011;2532;52.480;13.354;2023-12-14T07:00:28;10.87;;;8.10;;
5026;SDS011;2532;52.480;13.354;2023-12-14T07:02:55;12.20;;;7.90;;
5026;SDS011;2532;52.480;13.354;2023-12-14T07:05:22;10.40;;;7.17;;
5026;SDS011;2532;52.480;13.354;2023-12-14T07:07:49;13.37;;;8.87;;
5026;SDS011;2532;52.480;13.354;2023-12-14T07:10:16;11.47;;;7.97;;
5026;SDS011;2532;52.480;13.354;2023-12-14T07:12:43;13.80;;;7.63;;
5026;SDS011;2532;52.480;13.354;2023-12-14T07:15:11;13.57;;;8.07;;
5026;SDS011;2532;52.480;13.354;2023-12-14T07:17:41;12.60;;;8.93;;
5026;SDS011;2532;52.480;13.354;2023-12-14T07:20:08;16.10;;;10.47;;
5026;SDS011;2532;52.480;13.354;2023-12-14T07:22:36;11.60;;;8.43;;
5026;SDS011;2532;52.480;13.354;2023-12-14T07:25:02;11.90;;;8.63;;
5026;SDS011;2532;52.480;13.354;2023-12-14T07:27:29;14.60;;;9.27;;
5026;SDS011;2532;52.480;13.354;2023-12-14T07:29:56;16.30;;;8.90;;
5026;SDS011;2532;52.480;13.354;2023-12-14T07:32:25;11.53;;;8.40;;
5026;SDS011;2532;52.480;13.354;2023-12-14T07:34:52;16.53;;;9.20;;
5026;SDS011;2532;52.480;13.354;2023-12-14T07:37:19;12.87;;;9.13;;
5026;SDS011;2532;52.480;13.354;2023-12-14T07:39:46;14.10;;;9.37;;
5026;SDS011;2532;52.480;13.354;2023-12-14T07:42:12;12.57;;;8.40;;
5026;SDS011;2532;52.480;13.354;2023-12-14T07:44:44;16.37;;;9.50;;
5026;SDS011;2532;52.480;13.354;2023-12-14T07:47:11;15.80;;;8.23;;
5026;SDS011;2532;52.480;13.354;2023-12-14T07:49:40;16.00;;;9.70;;
5026;SDS011;2532;52.480;13.354;2023-12-14T07:52:07;13.10;;;9.30;;
5026;SDS011;2532;52.480;13.354;2023-12-14T07:54:34;15.97;;;10.00;;
5026;SDS011;2532;52.480;13.354;2023-12-14T07:57:01;16.07;;;10.37;;
5026;SDS011;2532;52.480;13.354;2023-12-14T07:59:28;17.60;;;9.37;;
5026;SDS011;2532;52.480;13.354;2023-12-14T08:01:56;20.77;;;10.47;;
5026;SDS011;2532;52.480;13.354;2023-12-14T08:04:23;15.33;;;9.90;;
5026;SDS011;2532;52.480;13.354;2023-12-14T08:06:52;14.70;;;9.70;;
5026;SDS011;2532;52.480;13.354;2023-12-14T08:09:22;14.50;;;9.20;;
5026;SDS011;2532;52.480;13.354;2023-12-14T08:11:49;17.70;;;9.27;;
5026;SDS011;2532;52.480;13.354;2023-12-14T08:14:17;12.27;;;8.73;;
5026;SDS011;2532;52.480;13.354;2023-12-14T08:16:44;15.60;;;9.33;;
5026;SDS011;2532;52.480;13.354;2023-12-14T08:19:11;28.97;;;13.50;;
5026;SDS011;2532;52.480;13.354;2023-12-14T08:21:38;18.77;;;11.50;;
5026;SDS011;2532;52.480;13.354;2023-12-14T08:24:06;20.03;;;10.23;;
5026;SDS011;2532;52.480;13.354;2023-12-14T08:26:34;16.97;;;10.67;;
5026;SDS011;2532;52.480;13.354;2023-12-14T08:29:00;23.07;;;12.07;;
5026;SDS011;2532;52.480;13.354;2023-12-14T08:31:27;19.00;;;11.30;;
5026;SDS011;2532;52.480;13.354;2023-12-14T08:33:57;17.57;;;11.70;;
5026;SDS011;2532;52.480;13.354;2023-12-14T08:36:24;22.00;;;11.20;;
5026;SDS011;2532;52.480;13.354;2023-12-14T08:38:51;20.30;;;11.73;;
5026;SDS011;2532;52.480;13.354;2023-12-14T08:41:19;22.40;;;11.80;;
5026;SDS011;2532;52.480;13.354;2023-12-14T08:43:46;15.23;;;10.03;;
5026;SDS011;2532;52.480;13.354;2023-12-14T08:46:13;15.27;;;10.43;;
5026;SDS011;2532;52.480;13.354;2023-12-14T08:48:40;19.77;;;11.67;;
5026;SDS011;2532;52.480;13.354;2023-12-14T08:51:07;25.83;;;15.60;;
5026;SDS011;2532;52.480;13.354;2023-12-14T08:53:34;17.70;;;10.97;;
5026;SDS011;2532;52.480;13.354;2023-12-14T08:56:00;14.77;;;10.30;;
5026;SDS011;2532;52.480;13.354;2023-12-14T08:58:29;17.23;;;10.50;;
5026;SDS011;2532;52.480;13.354;2023-12-14T09:00:56;17.10;;;10.67;;
5026;SDS011;2532;52.480;13.354;2023-12-14T09:03:22;16.20;;;10.53;;
5026;SDS011;2532;52.480;13.354;2023-12-14T09:05:51;15.27;;;9.07;;
5026;SDS011;2532;52.480;13.354;2023-12-14T09:08:18;16.17;;;10.20;;
5026;SDS011;2532;52.480;13.354;2023-12-14T09:10:45;18.80;;;11.80;;
5026;SDS011;2532;52.480;13.354;2023-12-14T09:13:12;21.27;;;11.30;;
5026;SDS011;2532;52.480;13.354;2023-12-14T09:15:41;17.17;;;11.47;;
5026;SDS011;2532;52.480;13.354;2023-12-14T09:18:17;17.03;;;10.67;;
5026;SDS011;2532;52.480;13.354;2023-12-14T09:20:45;17.77;;;11.17;;
5026;SDS011;2532;52.480;13.354;2023-12-14T09:23:12;16.60;;;9.00;;
5026;SDS011;2532;52.480;13.354;2023-12-14T09:25:39;18.33;;;11.73;;
5026;SDS011;2532;52.480;13.354;2023-12-14T09:28:06;17.10;;;10.37;;
5026;SDS011;2532;52.480;13.354;2023-12-14T09:30:33;18.10;;;11.00;;
5026;SDS011;2532;52.480;13.354;2023-12-14T09:33:01;18.50;;;11.17;;
5026;SDS011;2532;52.480;13.354;2023-12-14T09:35:28;18.30;;;11.67;;
5026;SDS011;2532;52.480;13.354;2023-12-14T09:37:55;18.40;;;11.20;;
5026;SDS011;2532;52.480;13.354;2023-12-14T09:40:22;22.83;;;11.20;;
5026;SDS011;2532;52.480;13.354;2023-12-14T09:42:50;65.07;;;13.47;;
5026;SDS011;2532;52.480;13.354;2023-12-14T09:45:17;16.50;;;11.33;;
5026;SDS011;2532;52.480;13.354;2023-12-14T09:47:45;16.50;;;10.80;;
5026;SDS011;2532;52.480;13.354;2023-12-14T09:52:49;17.23;;;10.93;;
5026;SDS011;2532;52.480;13.354;2023-12-14T09:55:16;19.43;;;12.03;;
5026;SDS011;2532;52.480;13.354;2023-12-14T09:57:43;19.90;;;11.77;;
5026;SDS011;2532;52.480;13.354;2023-12-14T10:00:11;20.30;;;12.27;;
5026;SDS011;2532;52.480;13.354;2023-12-14T10:02:40;20.17;;;11.73;;
5026;SDS011;2532;52.480;13.354;2023-12-14T10:05:08;17.70;;;10.40;;
5026;SDS011;2532;52.480;13.354;2023-12-14T10:07:38;20.83;;;13.13;;
5026;SDS011;2532;52.480;13.354;2023-12-14T10:10:11;17.07;;;11.60;;
5026;SDS011;2532;52.480;13.354;2023-12-14T10:12:50;23.20;;;12.00;;
5026;SDS011;2532;52.480;13.354;2023-12-14T10:15:17;17.47;;;11.07;;
5026;SDS011;2532;52.480;13.354;2023-12-14T10:17:45;16.10;;;10.63;;
5026;SDS011;2532;52.480;13.354;2023-12-14T10:20:19;15.43;;;10.23;;
5026;SDS011;2532;52.480;13.354;2023-12-14T10:22:47;18.70;;;11.03;;
5026;SDS011;2532;52.480;13.354;2023-12-14T10:25:16;16.10;;;10.00;;
5026;SDS011;2532;52.480;13.354;2023-12-14T10:27:48;17.30;;;11.30;;
5026;SDS011;2532;52.480;13.354;2023-12-14T10:30:18;16.27;;;10.33;;
5026;SDS011;2532;52.480;13.354;2023-12-14T10:32:45;15.70;;;10.20;;
5026;SDS011;2532;52.480;13.354;2023-12-14T10:35:14;16.77;;;10.33;;
5026;SDS011;2532;52.480;13.354;2023-12-14T10:37:42;18.53;;;11.80;;
5026;SDS011;2532;52.480;13.354;2023-12-14T10:40:10;17.80;;;10.53;;
5026;SDS011;2532;52.480;13.354;2023-12-14T10:42:41;17.43;;;10.57;;
5026;SDS011;2532;52.480;13.354;2023-12-14T10:45:10;15.00;;;9.50;;
5026;SDS011;2532;52.480;13.354;2023-12-14T10:47:38;18.87;;;10.53;;
5026;SDS011;2532;52.480;13.354;2023-12-14T10:50:09;21.03;;;12.10;;
5026;SDS011;2532;52.480;13.354;2023-12-14T10:52:37;19.03;;;11.33;;
5026;SDS011;2532;52.480;13.354;2023-12-14T10:55:07;15.87;;;10.20;;
5026;SDS011;2532;52.480;13.354;2023-12-14T10:57:36;20.90;;;11.47;;
5026;SDS011;2532;52.480;13.354;2023-12-14T11:00:06;14.10;;;8.87;;
5026;SDS011;2532;52.480;13.354;2023-12-14T11:02:39;14.80;;;10.00;;
5026;SDS011;2532;52.480;13.354;2023-12-14T11:05:08;17.20;;;10.80;;
5026;SDS011;2532;52.480;13.354;2023-12-14T11:07:47;18.23;;;10.77;;
5026;SDS011;2532;52.480;13.354;2023-12-14T11:10:20;16.57;;;10.90;;
5026;SDS011;2532;52.480;13.354;2023-12-14T11:12:56;17.83;;;10.60;;
5026;SDS011;2532;52.480;13.354;2023-12-14T11:15:29;17.10;;;11.80;;
5026;SDS011;2532;52.480;13.354;2023-12-14T11:20:51;19.53;;;11.90;;
5026;SDS011;2532;52.480;13.354;2023-12-14T11:23:27;20.70;;;13.10;;
5026;SDS011;2532;52.480;13.354;2023-12-14T11:25:58;23.20;;;13.60;;
5026;SDS011;2532;52.480;13.354;2023-12-14T11:28:28;20.40;;;12.00;;
5026;SDS011;2532;52.480;13.354;2023-12-14T11:30:57;16.43;;;10.60;;
5026;SDS011;2532;52.480;13.354;2023-12-14T11:33:25;18.03;;;11.10;;
5026;SDS011;2532;52.480;13.354;2023-12-14T11:35:53;20.70;;;11.53;;
5026;SDS011;2532;52.480;13.354;2023-12-14T11:38:21;19.10;;;11.57;;
5026;SDS011;2532;52.480;13.354;2023-12-14T11:40:49;18.73;;;11.83;;
5026;SDS011;2532;52.480;13.354;2023-12-14T11:43:19;19.50;;;12.10;;
5026;SDS011;2532;52.480;13.354;2023-12-14T11:45:46;22.37;;;12.70;;
5026;SDS011;2532;52.480;13.354;2023-12-14T11:48:15;17.60;;;11.50;;
5026;SDS011;2532;52.480;13.354;2023-12-14T11:50:42;17.87;;;11.67;;
5026;SDS011;2532;52.480;13.354;2023-12-14T11:53:10;20.70;;;12.27;;
5026;SDS011;2532;52.480;13.354;2023-12-14T11:55:38;21.30;;;12.47;;
5026;SDS011;2532;52.480;13.354;2023-12-14T11:58:06;24.53;;;12.13;;
5026;SDS011;2532;52.480;13.354;2023-12-14T12:00:34;17.10;;;10.80;;
5026;SDS011;2532;52.480;13.354;2023-12-14T12:03:08;16.77;;;10.93;;
5026;SDS011;2532;52.480;13.354;2023-12-14T12:05:38;18.57;;;11.57;;
5026;SDS011;2532;52.480;13.354;2023-12-14T12:08:05;17.23;;;10.80;;
5026;SDS011;2532;52.480;13.354;2023-12-14T12:10:33;18.03;;;11.07;;
5026;SDS011;2532;52.480;13.354;2023-12-14T12:13:04;17.53;;;10.80;;
5026;SDS011;2532;52.480;13.354;2023-12-14T12:15:33;19.40;;;11.43;;
5026;SDS011;2532;52.480;13.354;2023-12-14T12:18:05;17.90;;;11.80;;
5026;SDS011;2532;52.480;13.354;2023-12-14T12:20:35;20.93;;;12.70;;
5026;SDS011;2532;52.480;13.354;2023-12-14T12:23:06;18.10;;;11.30;;
5026;SDS011;2532;52.480;13.354;2023-12-14T12:25:39;18.13;;;10.03;;
5026;SDS011;2532;52.480;13.354;2023-12-14T12:28:06;18.07;;;10.87;;
5026;SDS011;2532;52.480;13.354;2023-12-14T12:30:33;22.37;;;11.70;;
5026;SDS011;2532;52.480;13.354;2023-12-14T12:33:00;19.97;;;12.40;;
5026;SDS011;2532;52.480;13.354;2023-12-14T12:35:29;19.53;;;11.80;;
5026;SDS011;2532;52.480;13.354;2023-12-14T12:37:59;24.03;;;12.33;;
5026;SDS011;2532;52.480;13.354;2023-12-14T12:40:31;16.30;;;10.57;;
5026;SDS011;2532;52.480;13.354;2023-12-14T12:42:58;17.97;;;11.03;;
5026;SDS011;2532;52.480;13.354;2023-12-14T12:45:26;15.17;;;9.97;;
5026;SDS011;2532;52.480;13.354;2023-12-14T12:47:54;20.00;;;11.20;;
5026;SDS011;2532;52.480;13.354;2023-12-14T12:50:21;18.07;;;11.10;;
5026;SDS011;2532;52.480;13.354;2023-12-14T12:52:50;19.33;;;11.30;;
5026;SDS011;2532;52.480;13.354;2023-12-14T12:55:19;15.93;;;9.90;;
5026;SDS011;2532;52.480;13.354;2023-12-14T12:57:47;18.20;;;11.57;;
5026;SDS011;2532;52.480;13.354;2023-12-14T13:00:14;26.90;;;15.17;;
5026;SDS011;2532;52.480;13.354;2023-12-14T13:02:45;19.77;;;11.33;;
5026;SDS011;2532;52.480;13.354;2023-12-14T13:05:12;16.33;;;10.43;;
5026;SDS011;2532;52.480;13.354;2023-12-14T13:07:43;16.47;;;10.63;;
5026;SDS011;2532;52.480;13.354;2023-12-14T13:10:12;17.10;;;10.30;;
5026;SDS011;2532;52.480;13.354;2023-12-14T13:12:41;15.80;;;10.80;;
5026;SDS011;2532;52.480;13.354;2023-12-14T13:15:08;15.57;;;10.90;;
5026;SDS011;2532;52.480;13.354;2023-12-14T13:17:36;23.30;;;10.83;;
5026;SDS011;2532;52.480;13.354;2023-12-14T13:20:03;15.70;;;10.40;;
5026;SDS011;2532;52.480;13.354;2023-12-14T13:22:32;20.40;;;11.93;;
5026;SDS011;2532;52.480;13.354;2023-12-14T13:25:04;20.13;;;12.07;;
5026;SDS011;2532;52.480;13.354;2023-12-14T13:27:31;19.80;;;12.40;;
5026;SDS011;2532;52.480;13.354;2023-12-14T13:29:59;20.70;;;13.00;;
5026;SDS011;2532;52.480;13.354;2023-12-14T13:32:26;19.73;;;11.93;;
5026;SDS011;2532;52.480;13.354;2023-12-14T13:34:53;19.80;;;13.17;;
5026;SDS011;2532;52.480;13.354;2023-12-14T13:37:20;18.93;;;11.80;;
5026;SDS011;2532;52.480;13.354;2023-12-14T13:39:48;24.90;;;12.90;;
5026;SDS011;2532;52.480;13.354;2023-12-14T13:42:18;22.67;;;12.77;;
5026;SDS011;2532;52.480;13.354;2023-12-14T13:44:47;22.43;;;13.57;;
5026;SDS011;2532;52.480;13.354;2023-12-14T13:47:15;21.30;;;12.43;;
5026;SDS011;2532;52.480;13.354;2023-12-14T13:49:43;21.30;;;13.53;;
5026;SDS011;2532;52.480;13.354;2023-12-14T13:52:10;22.17;;;12.80;;
5026;SDS011;2532;52.480;13.354;2023-12-14T13:54:37;20.80;;;13.50;;
5026;SDS011;2532;52.480;13.354;2023-12-14T13:57:04;23.00;;;13.60;;
5026;SDS011;2532;52.480;13.354;2023-12-14T13:59:34;20.43;;;13.37;;
5026;SDS011;2532;52.480;13.354;2023-12-14T14:02:01;18.40;;;12.23;;
5026;SDS011;2532;52.480;13.354;2023-12-14T14:04:31;20.37;;;12.27;;
5026;SDS011;2532;52.480;13.354;2023-12-14T14:06:58;20.97;;;12.87;;
5026;SDS011;2532;52.480;13.354;2023-12-14T14:09:26;19.17;;;11.53;;
5026;SDS011;2532;52.480;13.354;2023-12-14T14:11:53;23.40;;;12.37;;
5026;SDS011;2532;52.480;13.354;2023-12-14T14:14:20;20.40;;;12.37;;
5026;SDS011;2532;52.480;13.354;2023-12-14T14:16:51;19.10;;;11.80;;
5026;SDS011;2532;52.480;13.354;2023-12-14T14:19:22;22.27;;;12.27;;
5026;SDS011;2532;52.480;13.354;2023-12-14T14:21:50;20.70;;;12.53;;
5026;SDS011;2532;52.480;13.354;2023-12-14T14:24:17;20.43;;;11.60;;
5026;SDS011;2532;52.480;13.354;2023-12-14T14:26:45;26.80;;;12.93;;
5026;SDS011;2532;52.480;13.354;2023-12-14T14:29:12;22.17;;;12.30;;
5026;SDS011;2532;52.480;13.354;2023-12-14T14:31:39;18.30;;;12.13;;
5026;SDS011;2532;52.480;13.354;2023-12-14T14:34:06;20.87;;;12.27;;
5026;SDS011;2532;52.480;13.354;2023-12-14T14:36:33;20.90;;;12.37;;
5026;SDS011;2532;52.480;13.354;2023-12-14T14:39:01;22.77;;;13.50;;
5026;SDS011;2532;52.480;13.354;2023-12-14T14:41:29;21.43;;;13.70;;
5026;SDS011;2532;52.480;13.354;2023-12-14T14:43:57;19.73;;;12.47;;
5026;SDS011;2532;52.480;13.354;2023-12-14T14:46:24;18.80;;;12.43;;
5026;SDS011;2532;52.480;13.354;2023-12-14T14:48:53;23.57;;;12.70;;
5026;SDS011;2532;52.480;13.354;2023-12-14T14:51:20;18.53;;;12.23;;
5026;SDS011;2532;52.480;13.354;2023-12-14T14:53:47;29.20;;;16.23;;